createdAt,value
2023-01-29T00:01:29.210Z,6.63
2023-01-29T00:03:51.651Z,5.73
2023-01-29T00:06:13.103Z,6.30
2023-01-29T00:08:37.892Z,6.90
2023-01-29T00:11:03.996Z,4.63
2023-01-29T00:13:25.431Z,6.97
2023-01-29T00:15:57.649Z,5.97
2023-01-29T00:18:19.079Z,4.80
2023-01-29T00:20:45.248Z,5.53
2023-01-29T00:23:07.057Z,4.70
2023-01-29T00:25:28.576Z,7.00
2023-01-29T00:27:50.055Z,5.33
2023-01-29T00:30:13.106Z,5.80
2023-01-29T00:32:35.158Z,5.23
2023-01-29T00:34:58.885Z,5.90
2023-01-29T00:37:20.378Z,6.43
2023-01-29T00:39:50.025Z,6.10
2023-01-29T00:42:33.239Z,7.07
2023-01-29T00:45:01.582Z,9.50
2023-01-29T00:47:44.217Z,8.67
2023-01-29T00:50:09.892Z,7.57
2023-01-29T00:52:48.677Z,5.87
2023-01-29T00:55:12.555Z,8.33
2023-01-29T00:57:43.203Z,7.40
2023-01-29T01:00:07.639Z,6.13
2023-01-29T01:02:48.226Z,6.73
2023-01-29T01:05:14.242Z,8.13
2023-01-29T01:07:35.968Z,8.73
2023-01-29T01:10:33.429Z,6.70
2023-01-29T01:12:56.270Z,10.20
2023-01-29T01:15:18.446Z,6.30
2023-01-29T01:17:53.443Z,8.83
2023-01-29T01:20:15.842Z,10.10
2023-01-29T01:22:37.698Z,6.50
2023-01-29T01:24:59.255Z,6.63
2023-01-29T01:27:20.828Z,7.53
2023-01-29T01:29:42.273Z,7.80
2023-01-29T01:32:03.937Z,6.17
2023-01-29T01:34:27.148Z,5.73
2023-01-29T01:36:49.150Z,8.10
2023-01-29T01:39:10.798Z,8.20
2023-01-29T01:41:32.259Z,6.40
2023-01-29T01:44:00.135Z,8.60
2023-01-29T01:46:22.427Z,6.53
2023-01-29T01:48:47.246Z,7.47
2023-01-29T01:51:09.351Z,8.23
2023-01-29T01:53:44.987Z,9.33
2023-01-29T01:56:11.232Z,9.03
2023-01-29T01:58:55.301Z,9.40
2023-01-29T02:01:17.799Z,10.07
2023-01-29T02:04:04.363Z,7.80
2023-01-29T02:06:44.582Z,7.50
2023-01-29T02:09:33.547Z,6.80
2023-01-29T02:11:55.423Z,6.60
2023-01-29T02:14:16.847Z,7.37
2023-01-29T02:16:38.998Z,8.47
2023-01-29T02:19:00.592Z,5.97
2023-01-29T02:21:50.201Z,6.93
2023-01-29T02:24:38.053Z,7.77
2023-01-29T02:27:12.419Z,6.43
2023-01-29T02:30:07.884Z,7.50
2023-01-29T02:32:59.533Z,7.77
2023-01-29T02:35:34.624Z,6.33
2023-01-29T02:38:09.660Z,7.90
2023-01-29T02:40:56.228Z,8.70
2023-01-29T02:43:51.977Z,7.67
2023-01-29T02:46:45.603Z,8.03
2023-01-29T02:49:16.284Z,6.40
2023-01-29T02:51:45.208Z,8.40
2023-01-29T02:54:16.684Z,6.83
2023-01-29T02:56:48.331Z,7.60
2023-01-29T02:59:20.300Z,7.93
2023-01-29T03:02:00.238Z,8.47
2023-01-29T03:04:30.068Z,7.93
2023-01-29T03:06:57.274Z,8.67
2023-01-29T03:09:45.516Z,7.27
2023-01-29T03:12:28.508Z,6.87
2023-01-29T03:15:10.131Z,9.50
2023-01-29T03:17:40.716Z,7.83
2023-01-29T03:20:07.445Z,7.57
2023-01-29T03:22:30.370Z,9.17
2023-01-29T03:25:16.731Z,7.17
2023-01-29T03:28:04.588Z,6.40
2023-01-29T03:30:47.282Z,6.63
2023-01-29T03:33:12.230Z,8.00
2023-01-29T03:35:43.554Z,8.77
2023-01-29T03:38:11.265Z,7.10
2023-01-29T03:40:53.362Z,7.47
2023-01-29T03:43:33.581Z,9.20
2023-01-29T03:46:02.621Z,7.93
2023-01-29T03:48:55.962Z,12.67
2023-01-29T03:52:02.642Z,9.67
2023-01-29T03:54:46.627Z,8.30
2023-01-29T03:57:20.332Z,8.60
2023-01-29T03:59:53.414Z,7.63
2023-01-29T04:02:58.919Z,9.60
2023-01-29T04:05:23.327Z,10.73
2023-01-29T04:07:45.497Z,8.47
2023-01-29T04:10:11.544Z,8.90
2023-01-29T04:12:44.358Z,6.93
2023-01-29T04:15:10.872Z,8.53
2023-01-29T04:17:47.550Z,7.47
2023-01-29T04:20:11.348Z,6.63
2023-01-29T04:22:38.790Z,8.93
2023-01-29T04:25:08.561Z,8.50
2023-01-29T04:27:36.526Z,8.33
2023-01-29T04:30:23.540Z,8.80
2023-01-29T04:33:03.110Z,10.10
2023-01-29T04:36:00.161Z,12.83
2023-01-29T04:38:33.541Z,7.80
2023-01-29T04:41:04.126Z,7.83
2023-01-29T04:43:36.048Z,9.13
2023-01-29T04:46:05.320Z,8.57
2023-01-29T04:48:42.619Z,9.67
2023-01-29T04:51:28.139Z,10.33
2023-01-29T04:54:05.585Z,10.30
2023-01-29T04:56:36.285Z,11.33
2023-01-29T04:59:09.759Z,11.17
2023-01-29T05:01:33.408Z,9.87
2023-01-29T05:03:55.877Z,10.17
2023-01-29T05:06:18.883Z,10.73
2023-01-29T05:08:41.598Z,9.20
2023-01-29T05:11:03.050Z,15.07
2023-01-29T05:13:26.802Z,13.77
2023-01-29T05:15:54.733Z,12.60
2023-01-29T05:18:16.581Z,11.67
2023-01-29T05:20:41.432Z,10.47
2023-01-29T05:23:03.323Z,12.83
2023-01-29T05:25:28.259Z,12.63
2023-01-29T05:28:10.450Z,17.93
2023-01-29T05:30:37.388Z,11.50
2023-01-29T05:32:58.995Z,11.27
2023-01-29T05:35:20.501Z,9.17
2023-01-29T05:37:42.042Z,12.03
2023-01-29T05:40:03.925Z,12.10
2023-01-29T05:42:26.383Z,12.20
2023-01-29T05:44:47.988Z,11.87
2023-01-29T05:47:09.630Z,11.47
2023-01-29T05:49:31.036Z,13.47
2023-01-29T05:51:52.529Z,12.13
2023-01-29T05:54:14.198Z,11.53
2023-01-29T05:56:35.679Z,12.87
2023-01-29T05:58:57.649Z,10.27
2023-01-29T06:01:21.668Z,11.17
2023-01-29T06:03:43.515Z,11.47
2023-01-29T06:06:05.084Z,10.90
2023-01-29T06:08:26.533Z,12.90
2023-01-29T06:10:47.955Z,11.03
2023-01-29T06:13:09.407Z,9.87
2023-01-29T06:15:30.829Z,11.47
2023-01-29T06:17:56.760Z,12.37
2023-01-29T06:20:18.514Z,12.43
2023-01-29T06:22:40.103Z,11.07
2023-01-29T06:25:01.568Z,10.13
2023-01-29T06:27:23.028Z,11.13
2023-01-29T06:29:44.456Z,12.53
2023-01-29T06:32:06.084Z,13.33
2023-01-29T06:34:27.547Z,12.37
2023-01-29T06:36:49.012Z,14.27
2023-01-29T06:39:10.590Z,15.70
2023-01-29T06:41:32.066Z,15.50
2023-01-29T06:43:53.528Z,13.80
2023-01-29T06:46:15.153Z,13.47
2023-01-29T06:48:36.753Z,13.07
2023-01-29T06:51:05.188Z,10.63
2023-01-29T06:53:26.613Z,12.13
2023-01-29T06:55:52.213Z,11.97
2023-01-29T06:58:13.832Z,13.30
2023-01-29T07:00:36.031Z,12.90
2023-01-29T07:02:57.494Z,11.60
2023-01-29T07:05:19.066Z,12.73
2023-01-29T07:07:40.558Z,13.77
2023-01-29T07:10:01.996Z,12.50
2023-01-29T07:12:23.479Z,11.63
2023-01-29T07:14:44.972Z,11.83
2023-01-29T07:17:06.479Z,13.13
2023-01-29T07:19:27.958Z,14.83
2023-01-29T07:21:49.599Z,33.07
2023-01-29T07:24:11.072Z,23.07
2023-01-29T07:26:32.533Z,23.80
2023-01-29T07:28:53.959Z,19.60
2023-01-29T07:31:15.620Z,19.73
2023-01-29T07:33:37.190Z,16.63
2023-01-29T07:35:58.801Z,20.57
2023-01-29T07:38:20.622Z,13.43
2023-01-29T07:40:42.031Z,21.40
2023-01-29T07:43:05.772Z,12.73
2023-01-29T07:45:28.495Z,14.20
2023-01-29T07:47:55.095Z,14.67
2023-01-29T07:50:16.893Z,15.67
2023-01-29T07:52:38.476Z,15.77
2023-01-29T07:55:00.005Z,17.67
2023-01-29T07:57:21.540Z,27.37
2023-01-29T07:59:43.168Z,19.03
2023-01-29T08:02:04.747Z,19.83
2023-01-29T08:04:26.232Z,16.03
2023-01-29T08:06:47.761Z,16.70
2023-01-29T08:09:10.497Z,23.50
2023-01-29T08:11:31.950Z,16.67
2023-01-29T08:13:54.438Z,14.43
2023-01-29T08:16:16.060Z,16.53
2023-01-29T08:18:38.257Z,15.77
2023-01-29T08:21:01.245Z,14.80
2023-01-29T08:23:22.754Z,16.17
2023-01-29T08:25:44.725Z,16.97
2023-01-29T08:28:06.224Z,17.00
2023-01-29T08:30:32.060Z,18.63
2023-01-29T08:32:53.564Z,17.03
2023-01-29T08:35:15.021Z,14.07
2023-01-29T08:37:36.623Z,13.50
2023-01-29T08:39:58.072Z,13.73
2023-01-29T08:42:19.560Z,16.13
2023-01-29T08:44:40.973Z,14.73
2023-01-29T08:47:02.408Z,14.20
2023-01-29T08:49:23.921Z,16.13
2023-01-29T08:51:45.479Z,17.97
2023-01-29T08:54:06.979Z,15.70
2023-01-29T08:56:28.450Z,13.97
2023-01-29T08:58:49.880Z,17.67
2023-01-29T09:01:13.652Z,18.30
2023-01-29T09:03:35.152Z,14.37
2023-01-29T09:05:56.613Z,15.70
2023-01-29T09:08:18.141Z,16.53
2023-01-29T09:10:39.600Z,16.83
2023-01-29T09:13:01.112Z,14.87
2023-01-29T09:15:22.870Z,15.30
2023-01-29T09:17:44.411Z,14.47
2023-01-29T09:20:06.517Z,13.63
2023-01-29T09:22:28.643Z,17.27
2023-01-29T09:24:50.111Z,16.93
2023-01-29T09:27:11.777Z,17.60
2023-01-29T09:29:35.805Z,15.73
2023-01-29T09:31:57.480Z,16.60
2023-01-29T09:34:18.971Z,14.20
2023-01-29T09:36:40.375Z,14.23
2023-01-29T09:39:01.857Z,15.63
2023-01-29T09:41:39.166Z,16.00
2023-01-29T09:44:04.803Z,16.23
2023-01-29T09:46:47.915Z,14.77
2023-01-29T09:49:16.545Z,16.37
2023-01-29T09:51:42.045Z,16.17
2023-01-29T09:54:19.446Z,15.20
2023-01-29T09:56:47.062Z,16.30
2023-01-29T09:59:11.913Z,16.43
2023-01-29T10:01:40.805Z,18.63
2023-01-29T10:04:24.283Z,16.73
2023-01-29T10:07:11.280Z,19.60
2023-01-29T10:10:11.864Z,17.23
2023-01-29T10:13:18.410Z,17.53
2023-01-29T10:15:47.902Z,14.97
2023-01-29T10:18:34.357Z,16.03
2023-01-29T10:21:14.484Z,18.30
2023-01-29T10:23:46.526Z,15.33
2023-01-29T10:26:12.680Z,17.40
2023-01-29T10:28:46.431Z,16.80
2023-01-29T10:31:12.671Z,16.03
2023-01-29T10:33:49.196Z,18.40
2023-01-29T10:36:22.566Z,14.97
2023-01-29T10:38:46.691Z,16.67
2023-01-29T10:41:11.055Z,18.27
2023-01-29T10:43:57.578Z,17.47
2023-01-29T10:46:52.831Z,15.33
2023-01-29T10:49:14.164Z,16.73
2023-01-29T10:51:54.058Z,18.53
2023-01-29T10:54:41.310Z,21.33
2023-01-29T10:57:40.118Z,16.93
2023-01-29T11:00:26.422Z,16.43
2023-01-29T11:02:50.345Z,16.57
2023-01-29T11:05:36.272Z,18.37
2023-01-29T11:08:10.162Z,16.77
2023-01-29T11:10:35.898Z,18.57
2023-01-29T11:12:58.999Z,18.47
2023-01-29T11:15:28.349Z,18.20
2023-01-29T11:18:25.242Z,20.37
2023-01-29T11:20:59.245Z,17.97
2023-01-29T11:23:30.093Z,17.30
2023-01-29T11:25:56.734Z,17.57
2023-01-29T11:28:36.342Z,17.00
2023-01-29T11:30:57.955Z,17.67
2023-01-29T11:33:23.625Z,17.30
2023-01-29T11:35:45.439Z,17.77
2023-01-29T11:38:08.940Z,18.77
2023-01-29T11:40:39.379Z,16.47
2023-01-29T11:43:33.391Z,17.63
2023-01-29T11:45:58.455Z,19.67
2023-01-29T11:48:22.894Z,17.37
2023-01-29T11:50:51.784Z,16.97
2023-01-29T11:53:31.811Z,20.93
2023-01-29T11:55:55.876Z,17.63
2023-01-29T11:58:27.384Z,18.63
2023-01-29T12:00:51.933Z,17.03
2023-01-29T12:03:16.118Z,20.67
2023-01-29T12:05:40.344Z,16.10
2023-01-29T12:08:14.863Z,16.53
2023-01-29T12:10:38.160Z,17.17
2023-01-29T12:13:09.719Z,18.13
2023-01-29T12:15:31.138Z,17.63
2023-01-29T12:17:58.953Z,18.87
2023-01-29T12:20:28.649Z,16.10
2023-01-29T12:23:16.219Z,17.87
2023-01-29T12:25:49.313Z,16.67
2023-01-29T12:28:44.189Z,18.10
2023-01-29T12:31:43.160Z,15.50
2023-01-29T12:34:31.812Z,18.37
2023-01-29T12:37:11.324Z,16.43
2023-01-29T12:39:32.736Z,15.87
2023-01-29T12:42:05.011Z,18.33
2023-01-29T12:44:35.443Z,18.00
2023-01-29T12:47:01.005Z,15.83
2023-01-29T12:49:25.084Z,16.60
2023-01-29T12:52:07.425Z,17.10
2023-01-29T12:54:38.431Z,15.67
2023-01-29T12:57:04.177Z,17.87
2023-01-29T12:59:29.295Z,16.37
2023-01-29T13:01:58.108Z,19.57
2023-01-29T13:04:45.529Z,15.60
2023-01-29T13:07:23.737Z,17.93
2023-01-29T13:09:53.232Z,17.83
2023-01-29T13:12:17.556Z,17.90
2023-01-29T13:14:46.528Z,17.67
2023-01-29T13:17:14.696Z,18.47
2023-01-29T13:19:45.263Z,19.93
2023-01-29T13:22:18.301Z,18.30
2023-01-29T13:24:41.149Z,18.50
2023-01-29T13:27:03.772Z,17.47
2023-01-29T13:29:30.829Z,16.00
2023-01-29T13:31:55.558Z,17.53
2023-01-29T13:34:24.457Z,18.73
2023-01-29T13:36:49.794Z,17.37
2023-01-29T13:39:23.505Z,17.10
2023-01-29T13:41:45.113Z,17.90
2023-01-29T13:44:18.275Z,16.80
2023-01-29T13:46:41.826Z,16.50
2023-01-29T13:49:05.099Z,19.17
2023-01-29T13:51:36.311Z,19.80
2023-01-29T13:54:03.819Z,18.80
2023-01-29T13:57:02.755Z,17.60
2023-01-29T13:59:45.219Z,17.80
2023-01-29T14:02:24.385Z,18.20
2023-01-29T14:04:45.831Z,18.33
2023-01-29T14:07:45.484Z,17.37
2023-01-29T14:10:14.511Z,16.47
2023-01-29T14:12:37.799Z,18.47
2023-01-29T14:15:05.883Z,19.53
2023-01-29T14:17:28.690Z,16.37
2023-01-29T14:20:00.982Z,16.70
2023-01-29T14:22:28.669Z,18.20
2023-01-29T14:24:55.694Z,15.57
2023-01-29T14:27:23.025Z,17.07
2023-01-29T14:29:44.539Z,13.57
2023-01-29T14:32:05.927Z,16.07
2023-01-29T14:34:34.966Z,18.57
2023-01-29T14:37:02.313Z,23.83
2023-01-29T14:39:29.665Z,20.07
2023-01-29T14:41:52.450Z,16.20
2023-01-29T14:44:44.727Z,20.83
2023-01-29T14:47:06.222Z,17.33
2023-01-29T14:49:49.330Z,16.57
2023-01-29T14:52:12.581Z,15.73
2023-01-29T14:54:40.776Z,14.27
2023-01-29T14:57:08.587Z,14.87
2023-01-29T14:59:37.382Z,16.13
2023-01-29T15:02:05.094Z,15.03
2023-01-29T15:04:46.463Z,15.90
2023-01-29T15:07:11.043Z,16.17
2023-01-29T15:09:41.615Z,15.97
2023-01-29T15:12:13.655Z,20.40
2023-01-29T15:14:46.930Z,14.30
2023-01-29T15:17:22.075Z,14.93
2023-01-29T15:19:47.918Z,16.07
2023-01-29T15:22:21.353Z,15.13
2023-01-29T15:24:44.443Z,13.33
2023-01-29T15:27:09.688Z,15.20
2023-01-29T15:29:31.175Z,14.50
2023-01-29T15:31:53.462Z,15.87
2023-01-29T15:34:15.045Z,19.33
2023-01-29T15:36:37.075Z,18.07
2023-01-29T15:39:15.699Z,73.17
2023-01-29T15:41:37.719Z,28.37
2023-01-29T15:44:01.030Z,18.43
2023-01-29T15:46:28.275Z,16.00
2023-01-29T15:48:50.764Z,13.90
2023-01-29T15:51:18.224Z,17.90
2023-01-29T15:53:48.909Z,14.10
2023-01-29T15:56:12.740Z,14.50
2023-01-29T15:58:34.973Z,13.97
2023-01-29T16:00:59.043Z,13.83
2023-01-29T16:03:23.240Z,15.67
2023-01-29T16:05:44.916Z,15.83
2023-01-29T16:08:09.339Z,15.00
2023-01-29T16:10:32.628Z,22.70
2023-01-29T16:12:54.689Z,19.93
2023-01-29T16:15:23.659Z,28.03
2023-01-29T16:17:45.903Z,29.07
2023-01-29T16:20:31.776Z,19.37
2023-01-29T16:22:53.552Z,19.77
2023-01-29T16:25:15.621Z,16.80
2023-01-29T16:27:37.303Z,15.33
2023-01-29T16:29:59.289Z,19.27
2023-01-29T16:32:20.999Z,12.70
2023-01-29T16:34:45.598Z,14.80
2023-01-29T16:37:19.851Z,15.07
2023-01-29T16:39:46.064Z,14.30
2023-01-29T16:42:17.260Z,15.77
2023-01-29T16:44:49.339Z,14.00
2023-01-29T16:47:13.309Z,16.13
2023-01-29T16:49:34.689Z,13.80
2023-01-29T16:51:57.070Z,13.70
2023-01-29T16:54:23.563Z,16.07
2023-01-29T16:56:47.456Z,16.17
2023-01-29T16:59:18.728Z,16.03
2023-01-29T17:01:40.388Z,15.87
2023-01-29T17:04:19.349Z,15.20
2023-01-29T17:06:45.216Z,17.50
2023-01-29T17:09:07.142Z,16.10
2023-01-29T17:11:39.979Z,14.80
2023-01-29T17:14:01.875Z,15.47
2023-01-29T17:16:29.271Z,21.03
2023-01-29T17:18:51.307Z,20.03
2023-01-29T17:21:12.805Z,21.20
2023-01-29T17:23:36.474Z,21.63
2023-01-29T17:26:00.542Z,17.07
2023-01-29T17:28:24.738Z,20.73
2023-01-29T17:31:05.837Z,19.60
2023-01-29T17:33:28.307Z,19.60
2023-01-29T17:35:52.382Z,19.77
2023-01-29T17:38:25.608Z,17.77
2023-01-29T17:41:06.398Z,21.67
2023-01-29T17:43:28.507Z,18.53
2023-01-29T17:45:50.117Z,18.53
2023-01-29T17:48:19.615Z,18.07
2023-01-29T17:50:48.236Z,20.67
2023-01-29T17:53:09.851Z,18.93
2023-01-29T17:55:31.334Z,18.30
2023-01-29T17:57:52.795Z,19.57
2023-01-29T18:00:24.297Z,22.20
2023-01-29T18:02:45.891Z,20.40
2023-01-29T18:05:07.752Z,24.17
2023-01-29T18:07:29.180Z,23.23
2023-01-29T18:09:50.595Z,20.50
2023-01-29T18:12:12.059Z,19.03
2023-01-29T18:14:33.498Z,21.23
2023-01-29T18:16:57.228Z,19.97
2023-01-29T18:19:27.235Z,18.30
2023-01-29T18:21:49.902Z,21.07
2023-01-29T18:24:11.362Z,20.67
2023-01-29T18:26:32.835Z,18.47
2023-01-29T18:28:54.298Z,23.93
2023-01-29T18:31:15.885Z,19.03
2023-01-29T18:33:37.374Z,22.63
2023-01-29T18:35:58.784Z,21.90
2023-01-29T18:38:20.351Z,21.43
2023-01-29T18:40:41.903Z,20.27
2023-01-29T18:43:04.268Z,23.33
2023-01-29T18:45:25.756Z,19.60
2023-01-29T18:47:48.627Z,18.30
2023-01-29T18:50:10.945Z,20.70
2023-01-29T18:52:34.297Z,20.33
2023-01-29T18:54:55.763Z,21.13
2023-01-29T18:58:27.714Z,25.20
2023-01-29T18:59:58.772Z,21.80
2023-01-29T19:02:20.618Z,23.37
2023-01-29T19:04:42.523Z,22.00
2023-01-29T19:07:04.781Z,22.83
2023-01-29T19:09:26.441Z,21.50
2023-01-29T19:11:47.881Z,31.77
2023-01-29T19:14:13.628Z,19.80
2023-01-29T19:16:35.121Z,19.50
2023-01-29T19:18:56.711Z,22.97
2023-01-29T19:21:18.369Z,20.97
2023-01-29T19:23:45.450Z,23.27
2023-01-29T19:26:07.898Z,22.40
2023-01-29T19:28:29.388Z,20.77
2023-01-29T19:30:50.874Z,20.13
2023-01-29T19:33:12.371Z,21.50
2023-01-29T19:35:37.801Z,19.97
2023-01-29T19:38:03.973Z,20.97
2023-01-29T19:40:25.864Z,18.37
2023-01-29T19:42:47.969Z,21.10
2023-01-29T19:45:09.830Z,24.43
2023-01-29T19:47:35.865Z,18.20
2023-01-29T19:49:57.314Z,15.33
2023-01-29T19:52:50.649Z,19.30
2023-01-29T19:55:13.004Z,15.13
2023-01-29T19:57:34.848Z,21.20
2023-01-29T19:59:58.015Z,16.10
2023-01-29T20:02:19.633Z,17.93
2023-01-29T20:04:41.106Z,19.13
2023-01-29T20:07:02.519Z,17.47
2023-01-29T20:09:23.986Z,15.80
2023-01-29T20:11:45.409Z,16.53
2023-01-29T20:14:07.575Z,17.03
2023-01-29T20:16:29.339Z,15.93
2023-01-29T20:18:55.868Z,17.50
2023-01-29T20:21:35.868Z,16.20
2023-01-29T20:23:59.519Z,18.17
2023-01-29T20:26:21.802Z,18.47
2023-01-29T20:28:46.112Z,19.57
2023-01-29T20:31:09.693Z,11.43
2023-01-29T20:33:31.984Z,16.97
2023-01-29T20:35:55.040Z,16.33
2023-01-29T20:38:16.707Z,14.57
2023-01-29T20:40:38.243Z,16.83
2023-01-29T20:42:59.726Z,16.80
2023-01-29T20:45:21.960Z,17.13
2023-01-29T20:47:43.439Z,15.77
2023-01-29T20:50:08.607Z,14.10
2023-01-29T20:52:30.109Z,15.90
2023-01-29T20:54:56.609Z,15.57
2023-01-29T20:57:18.060Z,16.90
2023-01-29T20:59:39.592Z,16.20
2023-01-29T21:02:05.113Z,22.00
2023-01-29T21:04:33.058Z,16.97
2023-01-29T21:06:54.646Z,19.90
2023-01-29T21:09:16.146Z,16.97
2023-01-29T21:11:37.682Z,18.27
2023-01-29T21:13:59.233Z,17.43
2023-01-29T21:16:20.687Z,16.87
2023-01-29T21:18:42.203Z,20.83
2023-01-29T21:21:04.203Z,18.93
2023-01-29T21:23:25.643Z,15.87
2023-01-29T21:25:48.081Z,16.73
2023-01-29T21:28:09.550Z,15.53
2023-01-29T21:30:31.546Z,13.87
2023-01-29T21:32:53.038Z,16.87
2023-01-29T21:35:15.072Z,17.77
2023-01-29T21:37:37.937Z,16.50
2023-01-29T21:39:59.381Z,16.30
2023-01-29T21:42:39.110Z,14.67
2023-01-29T21:45:00.672Z,18.03
2023-01-29T21:47:22.334Z,17.83
2023-01-29T21:49:44.564Z,15.53
2023-01-29T21:52:06.583Z,16.10
2023-01-29T21:54:31.599Z,18.80
2023-01-29T21:56:53.055Z,14.33
2023-01-29T21:59:14.591Z,15.47
2023-01-29T22:01:38.676Z,18.63
2023-01-29T22:04:00.372Z,17.37
2023-01-29T22:06:22.918Z,16.20
2023-01-29T22:08:44.387Z,17.47
2023-01-29T22:11:07.270Z,14.30
2023-01-29T22:13:28.857Z,14.40
2023-01-29T22:15:55.086Z,16.23
2023-01-29T22:18:16.493Z,16.67
2023-01-29T22:20:37.942Z,13.77
2023-01-29T22:23:00.563Z,16.20
2023-01-29T22:25:22.144Z,16.83
2023-01-29T22:27:43.595Z,17.80
2023-01-29T22:30:05.841Z,18.47
2023-01-29T22:32:27.675Z,17.90
2023-01-29T22:34:49.168Z,15.97
2023-01-29T22:37:10.821Z,15.60
2023-01-29T22:39:32.311Z,17.70
2023-01-29T22:41:53.917Z,19.37
2023-01-29T22:44:16.147Z,19.90
2023-01-29T22:46:37.607Z,19.23
2023-01-29T22:48:59.153Z,18.53
2023-01-29T22:51:20.739Z,18.07
2023-01-29T22:53:48.427Z,21.43
2023-01-29T22:56:12.509Z,23.23
2023-01-29T22:58:34.130Z,22.27
2023-01-29T23:00:55.799Z,20.40
2023-01-29T23:03:17.432Z,25.97
2023-01-29T23:05:38.858Z,20.00
2023-01-29T23:08:00.270Z,20.80
2023-01-29T23:10:21.760Z,26.37
2023-01-29T23:12:43.218Z,22.00
2023-01-29T23:15:05.732Z,23.10
2023-01-29T23:17:27.233Z,27.37
2023-01-29T23:19:48.778Z,29.27
2023-01-29T23:22:10.337Z,24.63
2023-01-29T23:24:32.438Z,26.23
2023-01-29T23:27:13.047Z,22.97
2023-01-29T23:29:34.494Z,25.93
2023-01-29T23:31:55.971Z,29.57
2023-01-29T23:34:17.520Z,28.00
2023-01-29T23:36:39.046Z,25.17
2023-01-29T23:39:00.494Z,26.40
2023-01-29T23:41:22.461Z,31.03
2023-01-29T23:43:44.256Z,26.57
2023-01-29T23:46:05.751Z,26.27
2023-01-29T23:48:28.088Z,30.10
2023-01-29T23:50:50.180Z,30.57
2023-01-29T23:53:11.717Z,32.00
2023-01-29T23:55:33.176Z,28.00
2023-01-29T23:57:54.702Z,29.00
